sensor_id;sensor_type;location;lat;lon;timestamp;P1;durP1;ratioP1;P2;durP2;ratioP2
38123;SDS011;23934;47.998;9.832;2022-09-09T00:01:46;6.47;;;2.05;;
38123;SDS011;23934;47.998;9.832;2022-09-09T00:06:33;5.72;;;1.92;;
38123;SDS011;23934;47.998;9.832;2022-09-09T00:09:22;5.38;;;2.28;;
38123;SDS011;23934;47.998;9.832;2022-09-09T00:11:54;8.73;;;2.60;;
38123;SDS011;23934;47.998;9.832;2022-09-09T00:14:45;11.68;;;2.13;;
38123;SDS011;23934;47.998;9.832;2022-09-09T00:19:54;6.07;;;2.75;;
38123;SDS011;23934;47.998;9.832;2022-09-09T00:22:25;5.40;;;2.33;;
38123;SDS011;23934;47.998;9.832;2022-09-09T00:24:55;7.57;;;2.55;;
38123;SDS011;23934;47.998;9.832;2022-09-09T00:30:26;11.98;;;2.65;;
38123;SDS011;23934;47.998;9.832;2022-09-09T00:32:54;14.10;;;2.92;;
38123;SDS011;23934;47.998;9.832;2022-09-09T00:37:53;12.77;;;3.00;;
38123;SDS011;23934;47.998;9.832;2022-09-09T00:40:33;8.73;;;3.00;;
38123;SDS011;23934;47.998;9.832;2022-09-09T00:43:10;11.90;;;3.42;;
38123;SDS011;23934;47.998;9.832;2022-09-09T00:48:19;9.60;;;2.72;;
38123;SDS011;23934;47.998;9.832;2022-09-09T00:50:55;6.13;;;2.17;;
38123;SDS011;23934;47.998;9.832;2022-09-09T00:53:55;7.40;;;2.30;;
38123;SDS011;23934;47.998;9.832;2022-09-09T00:56:25;13.90;;;2.55;;
38123;SDS011;23934;47.998;9.832;2022-09-09T00:59:07;5.72;;;2.67;;
38123;SDS011;23934;47.998;9.832;2022-09-09T01:01:37;7.95;;;2.28;;
38123;SDS011;23934;47.998;9.832;2022-09-09T01:04:26;18.52;;;3.85;;
38123;SDS011;23934;47.998;9.832;2022-09-09T01:06:55;5.60;;;2.45;;
38123;SDS011;23934;47.998;9.832;2022-09-09T01:11:52;11.35;;;2.95;;
38123;SDS011;23934;47.998;9.832;2022-09-09T01:14:32;5.35;;;3.13;;
38123;SDS011;23934;47.998;9.832;2022-09-09T01:20:18;11.55;;;2.90;;
38123;SDS011;23934;47.998;9.832;2022-09-09T01:22:29;14.38;;;3.13;;
38123;SDS011;23934;47.998;9.832;2022-09-09T01:27:38;7.95;;;3.40;;
38123;SDS011;23934;47.998;9.832;2022-09-09T01:30:10;9.85;;;3.33;;
38123;SDS011;23934;47.998;9.832;2022-09-09T01:32:57;4.82;;;2.65;;
38123;SDS011;23934;47.998;9.832;2022-09-09T01:38:07;6.53;;;3.08;;
38123;SDS011;23934;47.998;9.832;2022-09-09T01:40:33;8.23;;;2.88;;
38123;SDS011;23934;47.998;9.832;2022-09-09T01:43:00;8.30;;;3.38;;
38123;SDS011;23934;47.998;9.832;2022-09-09T01:45:26;10.77;;;3.20;;
38123;SDS011;23934;47.998;9.832;2022-09-09T01:47:52;11.63;;;4.07;;
38123;SDS011;23934;47.998;9.832;2022-09-09T01:50:19;8.18;;;3.45;;
38123;SDS011;23934;47.998;9.832;2022-09-09T01:52:46;10.18;;;3.08;;
38123;SDS011;23934;47.998;9.832;2022-09-09T01:55:13;7.82;;;3.28;;
38123;SDS011;23934;47.998;9.832;2022-09-09T01:57:43;7.10;;;3.58;;
38123;SDS011;23934;47.998;9.832;2022-09-09T02:00:13;9.68;;;3.85;;
38123;SDS011;23934;47.998;9.832;2022-09-09T02:05:30;10.20;;;3.00;;
38123;SDS011;23934;47.998;9.832;2022-09-09T02:08:11;6.90;;;3.28;;
38123;SDS011;23934;47.998;9.832;2022-09-09T02:10:55;15.48;;;3.80;;
38123;SDS011;23934;47.998;9.832;2022-09-09T02:13:22;7.97;;;3.60;;
38123;SDS011;23934;47.998;9.832;2022-09-09T02:16:01;10.50;;;3.65;;
38123;SDS011;23934;47.998;9.832;2022-09-09T02:18:32;8.43;;;4.03;;
38123;SDS011;23934;47.998;9.832;2022-09-09T02:21:00;7.85;;;3.42;;
38123;SDS011;23934;47.998;9.832;2022-09-09T02:23:28;11.65;;;3.78;;
38123;SDS011;23934;47.998;9.832;2022-09-09T02:25:54;19.73;;;3.90;;
38123;SDS011;23934;47.998;9.832;2022-09-09T02:28:21;11.30;;;5.30;;
38123;SDS011;23934;47.998;9.832;2022-09-09T02:30:50;11.27;;;4.18;;
38123;SDS011;23934;47.998;9.832;2022-09-09T02:33:20;18.42;;;4.03;;
38123;SDS011;23934;47.998;9.832;2022-09-09T02:35:47;7.78;;;2.83;;
38123;SDS011;23934;47.998;9.832;2022-09-09T02:38:13;11.30;;;3.40;;
38123;SDS011;23934;47.998;9.832;2022-09-09T02:40:40;10.88;;;3.55;;
38123;SDS011;23934;47.998;9.832;2022-09-09T02:43:06;6.68;;;2.65;;
38123;SDS011;23934;47.998;9.832;2022-09-09T02:45:42;8.00;;;3.08;;
38123;SDS011;23934;47.998;9.832;2022-09-09T02:48:16;7.00;;;3.33;;
38123;SDS011;23934;47.998;9.832;2022-09-09T02:53:17;11.40;;;3.60;;
38123;SDS011;23934;47.998;9.832;2022-09-09T02:55:53;17.13;;;3.95;;
38123;SDS011;23934;47.998;9.832;2022-09-09T02:58:20;7.57;;;3.72;;
38123;SDS011;23934;47.998;9.832;2022-09-09T03:00:47;8.90;;;4.18;;
38123;SDS011;23934;47.998;9.832;2022-09-09T03:03:13;10.68;;;4.65;;
38123;SDS011;23934;47.998;9.832;2022-09-09T03:05:41;10.80;;;4.50;;
38123;SDS011;23934;47.998;9.832;2022-09-09T03:08:07;8.73;;;4.20;;
38123;SDS011;23934;47.998;9.832;2022-09-09T03:10:33;12.00;;;4.68;;
38123;SDS011;23934;47.998;9.832;2022-09-09T03:12:59;9.90;;;4.57;;
38123;SDS011;23934;47.998;9.832;2022-09-09T03:15:25;12.38;;;4.55;;
38123;SDS011;23934;47.998;9.832;2022-09-09T03:17:55;8.57;;;4.13;;
38123;SDS011;23934;47.998;9.832;2022-09-09T03:20:22;17.73;;;4.70;;
38123;SDS011;23934;47.998;9.832;2022-09-09T03:22:48;8.52;;;4.32;;
38123;SDS011;23934;47.998;9.832;2022-09-09T03:25:14;12.80;;;4.45;;
38123;SDS011;23934;47.998;9.832;2022-09-09T03:27:40;9.20;;;4.43;;
38123;SDS011;23934;47.998;9.832;2022-09-09T03:30:06;10.40;;;4.90;;
38123;SDS011;23934;47.998;9.832;2022-09-09T03:32:32;7.65;;;3.78;;
38123;SDS011;23934;47.998;9.832;2022-09-09T03:34:58;9.15;;;4.40;;
38123;SDS011;23934;47.998;9.832;2022-09-09T03:37:24;9.25;;;4.20;;
38123;SDS011;23934;47.998;9.832;2022-09-09T03:39:50;9.50;;;4.40;;
38123;SDS011;23934;47.998;9.832;2022-09-09T03:42:17;10.88;;;4.72;;
38123;SDS011;23934;47.998;9.832;2022-09-09T03:44:44;14.50;;;4.45;;
38123;SDS011;23934;47.998;9.832;2022-09-09T03:47:12;12.32;;;4.43;;
38123;SDS011;23934;47.998;9.832;2022-09-09T03:49:38;13.77;;;4.65;;
38123;SDS011;23934;47.998;9.832;2022-09-09T03:52:04;9.57;;;3.90;;
38123;SDS011;23934;47.998;9.832;2022-09-09T03:54:30;6.03;;;2.97;;
38123;SDS011;23934;47.998;9.832;2022-09-09T03:56:56;5.15;;;2.63;;
38123;SDS011;23934;47.998;9.832;2022-09-09T03:59:22;10.55;;;3.50;;
38123;SDS011;23934;47.998;9.832;2022-09-09T04:01:48;13.10;;;3.70;;
38123;SDS011;23934;47.998;9.832;2022-09-09T04:04:14;7.43;;;3.40;;
38123;SDS011;23934;47.998;9.832;2022-09-09T04:06:40;7.60;;;3.35;;
38123;SDS011;23934;47.998;9.832;2022-09-09T04:09:06;10.43;;;3.50;;
38123;SDS011;23934;47.998;9.832;2022-09-09T04:11:32;6.75;;;3.60;;
38123;SDS011;23934;47.998;9.832;2022-09-09T04:13:58;9.48;;;3.38;;
38123;SDS011;23934;47.998;9.832;2022-09-09T04:16:24;10.52;;;3.17;;
38123;SDS011;23934;47.998;9.832;2022-09-09T04:18:51;5.68;;;3.05;;
38123;SDS011;23934;47.998;9.832;2022-09-09T04:21:18;7.13;;;3.38;;
38123;SDS011;23934;47.998;9.832;2022-09-09T04:23:44;6.72;;;3.22;;
38123;SDS011;23934;47.998;9.832;2022-09-09T04:26:10;11.07;;;3.95;;
38123;SDS011;23934;47.998;9.832;2022-09-09T04:28:36;10.48;;;4.10;;
38123;SDS011;23934;47.998;9.832;2022-09-09T04:31:09;7.72;;;3.25;;
38123;SDS011;23934;47.998;9.832;2022-09-09T04:33:35;6.05;;;3.42;;
38123;SDS011;23934;47.998;9.832;2022-09-09T04:36:03;12.65;;;3.35;;
38123;SDS011;23934;47.998;9.832;2022-09-09T04:38:29;5.47;;;3.42;;
38123;SDS011;23934;47.998;9.832;2022-09-09T04:40:55;9.05;;;3.92;;
38123;SDS011;23934;47.998;9.832;2022-09-09T04:43:22;12.77;;;4.28;;
38123;SDS011;23934;47.998;9.832;2022-09-09T04:45:50;10.40;;;3.55;;
38123;SDS011;23934;47.998;9.832;2022-09-09T04:48:17;10.55;;;3.85;;
38123;SDS011;23934;47.998;9.832;2022-09-09T04:50:43;9.82;;;3.33;;
38123;SDS011;23934;47.998;9.832;2022-09-09T04:53:09;7.25;;;3.53;;
38123;SDS011;23934;47.998;9.832;2022-09-09T04:55:35;7.32;;;4.10;;
38123;SDS011;23934;47.998;9.832;2022-09-09T04:58:04;7.78;;;3.90;;
38123;SDS011;23934;47.998;9.832;2022-09-09T05:00:30;8.68;;;4.13;;
38123;SDS011;23934;47.998;9.832;2022-09-09T05:02:56;9.75;;;4.45;;
38123;SDS011;23934;47.998;9.832;2022-09-09T05:05:22;12.18;;;4.60;;
38123;SDS011;23934;47.998;9.832;2022-09-09T05:07:50;12.48;;;4.20;;
38123;SDS011;23934;47.998;9.832;2022-09-09T05:10:16;7.20;;;4.20;;
38123;SDS011;23934;47.998;9.832;2022-09-09T05:12:42;12.00;;;4.57;;
38123;SDS011;23934;47.998;9.832;2022-09-09T05:15:09;12.65;;;4.90;;
38123;SDS011;23934;47.998;9.832;2022-09-09T05:17:35;11.82;;;4.72;;
38123;SDS011;23934;47.998;9.832;2022-09-09T05:20:01;9.82;;;4.03;;
38123;SDS011;23934;47.998;9.832;2022-09-09T05:22:28;7.47;;;3.70;;
38123;SDS011;23934;47.998;9.832;2022-09-09T05:24:55;12.02;;;4.60;;
38123;SDS011;23934;47.998;9.832;2022-09-09T05:27:21;7.35;;;4.07;;
38123;SDS011;23934;47.998;9.832;2022-09-09T05:29:47;8.75;;;3.78;;
38123;SDS011;23934;47.998;9.832;2022-09-09T05:32:13;11.98;;;3.95;;
38123;SDS011;23934;47.998;9.832;2022-09-09T05:34:41;9.93;;;3.88;;
38123;SDS011;23934;47.998;9.832;2022-09-09T05:37:07;12.23;;;4.32;;
38123;SDS011;23934;47.998;9.832;2022-09-09T05:39:33;10.23;;;4.10;;
38123;SDS011;23934;47.998;9.832;2022-09-09T05:42:01;12.25;;;4.40;;
38123;SDS011;23934;47.998;9.832;2022-09-09T05:44:27;9.68;;;3.15;;
38123;SDS011;23934;47.998;9.832;2022-09-09T05:46:54;14.90;;;3.42;;
38123;SDS011;23934;47.998;9.832;2022-09-09T05:49:20;5.28;;;2.83;;
38123;SDS011;23934;47.998;9.832;2022-09-09T05:51:46;4.70;;;2.85;;
38123;SDS011;23934;47.998;9.832;2022-09-09T05:54:13;5.00;;;2.88;;
38123;SDS011;23934;47.998;9.832;2022-09-09T05:56:40;5.68;;;2.60;;
38123;SDS011;23934;47.998;9.832;2022-09-09T05:59:06;6.93;;;2.80;;
38123;SDS011;23934;47.998;9.832;2022-09-09T06:01:33;9.65;;;2.42;;
38123;SDS011;23934;47.998;9.832;2022-09-09T06:03:59;8.30;;;2.53;;
38123;SDS011;23934;47.998;9.832;2022-09-09T06:06:26;5.45;;;2.45;;
38123;SDS011;23934;47.998;9.832;2022-09-09T06:08:54;2.95;;;2.00;;
38123;SDS011;23934;47.998;9.832;2022-09-09T06:11:23;8.57;;;1.88;;
38123;SDS011;23934;47.998;9.832;2022-09-09T06:13:49;2.70;;;1.60;;
38123;SDS011;23934;47.998;9.832;2022-09-09T06:16:19;5.15;;;2.03;;
38123;SDS011;23934;47.998;9.832;2022-09-09T06:18:45;4.03;;;1.80;;
38123;SDS011;23934;47.998;9.832;2022-09-09T06:21:15;11.80;;;2.10;;
38123;SDS011;23934;47.998;9.832;2022-09-09T06:23:41;3.83;;;1.30;;
38123;SDS011;23934;47.998;9.832;2022-09-09T06:26:10;6.50;;;1.92;;
38123;SDS011;23934;47.998;9.832;2022-09-09T06:28:36;7.50;;;2.30;;
38123;SDS011;23934;47.998;9.832;2022-09-09T06:31:03;7.55;;;1.92;;
38123;SDS011;23934;47.998;9.832;2022-09-09T06:33:37;7.47;;;2.17;;
38123;SDS011;23934;47.998;9.832;2022-09-09T06:36:06;5.35;;;2.03;;
38123;SDS011;23934;47.998;9.832;2022-09-09T06:38:32;8.70;;;2.00;;
38123;SDS011;23934;47.998;9.832;2022-09-09T06:40:58;10.68;;;2.20;;
38123;SDS011;23934;47.998;9.832;2022-09-09T06:43:25;4.68;;;2.03;;
38123;SDS011;23934;47.998;9.832;2022-09-09T06:45:59;4.25;;;1.67;;
38123;SDS011;23934;47.998;9.832;2022-09-09T06:48:25;3.28;;;1.83;;
38123;SDS011;23934;47.998;9.832;2022-09-09T06:53:38;5.03;;;1.70;;
38123;SDS011;23934;47.998;9.832;2022-09-09T06:58:40;4.45;;;1.70;;
38123;SDS011;23934;47.998;9.832;2022-09-09T07:01:10;4.50;;;1.08;;
38123;SDS011;23934;47.998;9.832;2022-09-09T07:03:37;3.97;;;1.30;;
38123;SDS011;23934;47.998;9.832;2022-09-09T07:06:03;4.15;;;1.42;;
38123;SDS011;23934;47.998;9.832;2022-09-09T07:08:30;3.47;;;1.50;;
38123;SDS011;23934;47.998;9.832;2022-09-09T07:11:06;2.05;;;1.45;;
38123;SDS011;23934;47.998;9.832;2022-09-09T07:13:32;2.42;;;1.50;;
38123;SDS011;23934;47.998;9.832;2022-09-09T07:16:05;6.07;;;1.52;;
38123;SDS011;23934;47.998;9.832;2022-09-09T07:18:31;4.10;;;1.40;;
38123;SDS011;23934;47.998;9.832;2022-09-09T07:20:58;3.83;;;1.17;;
38123;SDS011;23934;47.998;9.832;2022-09-09T07:23:24;3.33;;;1.35;;
38123;SDS011;23934;47.998;9.832;2022-09-09T07:25:51;6.80;;;1.52;;
38123;SDS011;23934;47.998;9.832;2022-09-09T07:28:17;2.95;;;1.40;;
38123;SDS011;23934;47.998;9.832;2022-09-09T07:30:43;2.63;;;1.30;;
38123;SDS011;23934;47.998;9.832;2022-09-09T07:33:18;3.17;;;1.30;;
38123;SDS011;23934;47.998;9.832;2022-09-09T07:35:45;2.25;;;1.08;;
38123;SDS011;23934;47.998;9.832;2022-09-09T07:38:11;3.78;;;1.38;;
38123;SDS011;23934;47.998;9.832;2022-09-09T07:40:37;2.92;;;1.55;;
38123;SDS011;23934;47.998;9.832;2022-09-09T07:43:04;7.32;;;2.17;;
38123;SDS011;23934;47.998;9.832;2022-09-09T07:45:30;8.15;;;1.40;;
38123;SDS011;23934;47.998;9.832;2022-09-09T07:47:57;3.75;;;1.63;;
38123;SDS011;23934;47.998;9.832;2022-09-09T07:50:23;2.92;;;1.38;;
38123;SDS011;23934;47.998;9.832;2022-09-09T07:52:50;3.58;;;1.45;;
38123;SDS011;23934;47.998;9.832;2022-09-09T07:55:16;1.25;;;0.73;;
38123;SDS011;23934;47.998;9.832;2022-09-09T07:57:42;1.38;;;0.90;;
38123;SDS011;23934;47.998;9.832;2022-09-09T08:00:09;7.07;;;1.10;;
38123;SDS011;23934;47.998;9.832;2022-09-09T08:02:35;3.22;;;1.33;;
38123;SDS011;23934;47.998;9.832;2022-09-09T08:05:01;3.50;;;0.80;;
38123;SDS011;23934;47.998;9.832;2022-09-09T08:07:28;1.95;;;1.02;;
38123;SDS011;23934;47.998;9.832;2022-09-09T08:09:54;1.98;;;0.98;;
38123;SDS011;23934;47.998;9.832;2022-09-09T08:12:20;1.63;;;1.00;;
38123;SDS011;23934;47.998;9.832;2022-09-09T08:14:46;2.13;;;0.90;;
38123;SDS011;23934;47.998;9.832;2022-09-09T08:17:13;1.05;;;0.80;;
38123;SDS011;23934;47.998;9.832;2022-09-09T08:19:39;4.78;;;1.48;;
38123;SDS011;23934;47.998;9.832;2022-09-09T08:22:05;2.33;;;1.25;;
38123;SDS011;23934;47.998;9.832;2022-09-09T08:24:32;1.92;;;1.00;;
38123;SDS011;23934;47.998;9.832;2022-09-09T08:26:58;2.25;;;1.05;;
38123;SDS011;23934;47.998;9.832;2022-09-09T08:29:24;0.93;;;0.90;;
38123;SDS011;23934;47.998;9.832;2022-09-09T08:31:54;3.78;;;1.10;;
38123;SDS011;23934;47.998;9.832;2022-09-09T08:34:22;1.55;;;0.68;;
38123;SDS011;23934;47.998;9.832;2022-09-09T08:36:49;4.00;;;1.08;;
38123;SDS011;23934;47.998;9.832;2022-09-09T08:39:16;5.70;;;1.10;;
38123;SDS011;23934;47.998;9.832;2022-09-09T08:44:21;7.30;;;1.70;;
38123;SDS011;23934;47.998;9.832;2022-09-09T08:51:50;3.53;;;1.27;;
38123;SDS011;23934;47.998;9.832;2022-09-09T08:54:20;2.88;;;1.30;;
38123;SDS011;23934;47.998;9.832;2022-09-09T08:56:46;3.28;;;1.40;;
38123;SDS011;23934;47.998;9.832;2022-09-09T08:59:12;6.05;;;1.30;;
38123;SDS011;23934;47.998;9.832;2022-09-09T09:01:44;3.53;;;0.88;;
38123;SDS011;23934;47.998;9.832;2022-09-09T09:04:27;4.25;;;1.20;;
38123;SDS011;23934;47.998;9.832;2022-09-09T09:09:39;4.75;;;1.05;;
38123;SDS011;23934;47.998;9.832;2022-09-09T09:12:14;3.55;;;1.20;;
38123;SDS011;23934;47.998;9.832;2022-09-09T09:14:41;4.53;;;1.08;;
38123;SDS011;23934;47.998;9.832;2022-09-09T09:17:11;2.90;;;1.52;;
38123;SDS011;23934;47.998;9.832;2022-09-09T09:19:39;1.90;;;0.90;;
38123;SDS011;23934;47.998;9.832;2022-09-09T09:24:54;4.60;;;1.15;;
38123;SDS011;23934;47.998;9.832;2022-09-09T09:27:22;3.00;;;1.27;;
38123;SDS011;23934;47.998;9.832;2022-09-09T09:29:50;2.25;;;1.20;;
38123;SDS011;23934;47.998;9.832;2022-09-09T09:32:18;2.90;;;1.38;;
38123;SDS011;23934;47.998;9.832;2022-09-09T09:34:54;4.70;;;1.48;;
38123;SDS011;23934;47.998;9.832;2022-09-09T09:37:33;2.45;;;1.35;;
38123;SDS011;23934;47.998;9.832;2022-09-09T09:40:09;8.90;;;1.67;;
38123;SDS011;23934;47.998;9.832;2022-09-09T09:42:36;7.18;;;1.48;;
38123;SDS011;23934;47.998;9.832;2022-09-09T09:47:57;4.28;;;1.40;;
38123;SDS011;23934;47.998;9.832;2022-09-09T09:50:23;3.47;;;1.30;;
38123;SDS011;23934;47.998;9.832;2022-09-09T09:52:55;2.92;;;1.10;;
38123;SDS011;23934;47.998;9.832;2022-09-09T09:55:22;5.25;;;1.30;;
38123;SDS011;23934;47.998;9.832;2022-09-09T09:57:49;4.82;;;1.52;;
38123;SDS011;23934;47.998;9.832;2022-09-09T10:00:19;2.55;;;1.08;;
38123;SDS011;23934;47.998;9.832;2022-09-09T10:02:46;4.65;;;1.30;;
38123;SDS011;23934;47.998;9.832;2022-09-09T10:07:38;2.38;;;1.23;;
38123;SDS011;23934;47.998;9.832;2022-09-09T10:10:04;4.30;;;1.52;;
38123;SDS011;23934;47.998;9.832;2022-09-09T10:18:20;3.58;;;1.42;;
38123;SDS011;23934;47.998;9.832;2022-09-09T10:20:55;4.40;;;1.33;;
38123;SDS011;23934;47.998;9.832;2022-09-09T10:33:57;6.65;;;1.35;;
38123;SDS011;23934;47.998;9.832;2022-09-09T10:36:26;4.53;;;1.10;;
38123;SDS011;23934;47.998;9.832;2022-09-09T10:38:56;1.42;;;0.80;;
38123;SDS011;23934;47.998;9.832;2022-09-09T10:42:25;2.15;;;0.90;;
38123;SDS011;23934;47.998;9.832;2022-09-09T10:56:50;2.78;;;0.88;;
38123;SDS011;23934;47.998;9.832;2022-09-09T10:59:20;1.95;;;1.10;;
38123;SDS011;23934;47.998;9.832;2022-09-09T11:01:52;3.30;;;1.42;;
38123;SDS011;23934;47.998;9.832;2022-09-09T11:04:23;6.00;;;1.45;;
38123;SDS011;23934;47.998;9.832;2022-09-09T11:06:52;4.57;;;1.23;;
38123;SDS011;23934;47.998;9.832;2022-09-09T11:09:23;4.43;;;1.17;;
38123;SDS011;23934;47.998;9.832;2022-09-09T11:17:02;5.75;;;1.27;;
38123;SDS011;23934;47.998;9.832;2022-09-09T11:19:33;1.92;;;0.88;;
38123;SDS011;23934;47.998;9.832;2022-09-09T11:27:29;3.78;;;1.10;;
38123;SDS011;23934;47.998;9.832;2022-09-09T11:40:37;3.50;;;1.20;;
38123;SDS011;23934;47.998;9.832;2022-09-09T11:43:05;3.35;;;1.27;;
38123;SDS011;23934;47.998;9.832;2022-09-09T11:45:33;2.55;;;1.23;;
38123;SDS011;23934;47.998;9.832;2022-09-09T11:48:00;7.70;;;1.05;;
38123;SDS011;23934;47.998;9.832;2022-09-09T11:50:31;5.30;;;1.00;;
38123;SDS011;23934;47.998;9.832;2022-09-09T11:53:31;2.67;;;1.10;;
38123;SDS011;23934;47.998;9.832;2022-09-09T11:56:09;2.53;;;1.00;;
38123;SDS011;23934;47.998;9.832;2022-09-09T11:58:37;2.50;;;0.90;;
38123;SDS011;23934;47.998;9.832;2022-09-09T12:01:14;2.78;;;1.10;;
38123;SDS011;23934;47.998;9.832;2022-09-09T12:03:47;3.20;;;1.00;;
38123;SDS011;23934;47.998;9.832;2022-09-09T12:06:25;1.90;;;0.90;;
38123;SDS011;23934;47.998;9.832;2022-09-09T12:08:52;2.38;;;0.80;;
38123;SDS011;23934;47.998;9.832;2022-09-09T12:11:26;2.85;;;1.00;;
38123;SDS011;23934;47.998;9.832;2022-09-09T12:13:56;4.57;;;1.38;;
38123;SDS011;23934;47.998;9.832;2022-09-09T12:19:03;5.75;;;1.23;;
38123;SDS011;23934;47.998;9.832;2022-09-09T12:21:41;2.78;;;1.08;;
38123;SDS011;23934;47.998;9.832;2022-09-09T12:24:13;7.03;;;1.50;;
38123;SDS011;23934;47.998;9.832;2022-09-09T12:26:43;5.45;;;1.30;;
38123;SDS011;23934;47.998;9.832;2022-09-09T12:31:55;5.32;;;1.27;;
38123;SDS011;23934;47.998;9.832;2022-09-09T12:34:41;3.50;;;1.20;;
38123;SDS011;23934;47.998;9.832;2022-09-09T12:37:16;3.90;;;1.30;;
38123;SDS011;23934;47.998;9.832;2022-09-09T12:39:51;3.28;;;1.15;;
38123;SDS011;23934;47.998;9.832;2022-09-09T12:42:20;4.03;;;0.95;;
38123;SDS011;23934;47.998;9.832;2022-09-09T12:44:53;4.07;;;1.10;;
38123;SDS011;23934;47.998;9.832;2022-09-09T12:47:20;1.92;;;1.13;;
38123;SDS011;23934;47.998;9.832;2022-09-09T12:49:47;3.72;;;1.00;;
38123;SDS011;23934;47.998;9.832;2022-09-09T12:54:42;1.75;;;0.80;;
38123;SDS011;23934;47.998;9.832;2022-09-09T12:57:12;4.25;;;1.08;;
38123;SDS011;23934;47.998;9.832;2022-09-09T12:59:39;2.97;;;1.17;;
38123;SDS011;23934;47.998;9.832;2022-09-09T13:02:11;4.45;;;1.17;;
38123;SDS011;23934;47.998;9.832;2022-09-09T13:04:42;3.33;;;1.15;;
38123;SDS011;23934;47.998;9.832;2022-09-09T13:07:09;6.28;;;1.08;;
38123;SDS011;23934;47.998;9.832;2022-09-09T13:09:36;3.83;;;1.00;;
38123;SDS011;23934;47.998;9.832;2022-09-09T13:12:02;3.08;;;0.65;;
38123;SDS011;23934;47.998;9.832;2022-09-09T13:14:34;5.10;;;1.00;;
38123;SDS011;23934;47.998;9.832;2022-09-09T13:17:03;2.47;;;1.25;;
38123;SDS011;23934;47.998;9.832;2022-09-09T13:19:30;2.55;;;0.85;;
38123;SDS011;23934;47.998;9.832;2022-09-09T13:21:57;5.05;;;1.10;;
38123;SDS011;23934;47.998;9.832;2022-09-09T13:24:33;3.53;;;0.80;;
38123;SDS011;23934;47.998;9.832;2022-09-09T13:27:01;2.50;;;0.90;;
38123;SDS011;23934;47.998;9.832;2022-09-09T13:29:27;0.40;;;0.40;;
38123;SDS011;23934;47.998;9.832;2022-09-09T13:31:53;1.10;;;0.70;;
38123;SDS011;23934;47.998;9.832;2022-09-09T13:34:26;4.45;;;0.80;;
38123;SDS011;23934;47.998;9.832;2022-09-09T13:36:53;3.10;;;0.90;;
38123;SDS011;23934;47.998;9.832;2022-09-09T13:39:21;7.63;;;1.55;;
38123;SDS011;23934;47.998;9.832;2022-09-09T13:41:48;4.40;;;0.90;;
38123;SDS011;23934;47.998;9.832;2022-09-09T13:44:17;10.68;;;0.70;;
38123;SDS011;23934;47.998;9.832;2022-09-09T13:46:44;3.03;;;0.93;;
38123;SDS011;23934;47.998;9.832;2022-09-09T13:51:37;1.90;;;0.70;;
38123;SDS011;23934;47.998;9.832;2022-09-09T13:54:04;3.15;;;1.05;;
38123;SDS011;23934;47.998;9.832;2022-09-09T13:56:31;6.53;;;1.38;;
38123;SDS011;23934;47.998;9.832;2022-09-09T13:58:57;2.22;;;1.00;;
38123;SDS011;23934;47.998;9.832;2022-09-09T14:01:23;2.38;;;0.80;;
38123;SDS011;23934;47.998;9.832;2022-09-09T14:03:49;3.08;;;0.90;;
38123;SDS011;23934;47.998;9.832;2022-09-09T14:06:15;1.40;;;0.90;;
38123;SDS011;23934;47.998;9.832;2022-09-09T14:08:43;3.13;;;1.13;;
38123;SDS011;23934;47.998;9.832;2022-09-09T14:11:11;8.40;;;1.00;;
38123;SDS011;23934;47.998;9.832;2022-09-09T14:13:37;3.78;;;1.15;;
38123;SDS011;23934;47.998;9.832;2022-09-09T14:16:04;1.50;;;0.90;;
38123;SDS011;23934;47.998;9.832;2022-09-09T14:18:30;3.20;;;0.90;;
38123;SDS011;23934;47.998;9.832;2022-09-09T14:20:56;2.58;;;1.00;;
38123;SDS011;23934;47.998;9.832;2022-09-09T14:23:23;1.25;;;0.77;;
38123;SDS011;23934;47.998;9.832;2022-09-09T14:25:49;2.92;;;0.90;;
38123;SDS011;23934;47.998;9.832;2022-09-09T14:28:15;2.70;;;0.90;;
38123;SDS011;23934;47.998;9.832;2022-09-09T14:30:41;1.55;;;0.95;;
38123;SDS011;23934;47.998;9.832;2022-09-09T14:33:09;1.58;;;1.30;;
38123;SDS011;23934;47.998;9.832;2022-09-09T14:35:35;2.13;;;1.10;;
38123;SDS011;23934;47.998;9.832;2022-09-09T14:38:02;2.95;;;0.80;;
38123;SDS011;23934;47.998;9.832;2022-09-09T14:40:29;5.22;;;0.77;;
38123;SDS011;23934;47.998;9.832;2022-09-09T14:42:55;1.58;;;0.57;;
38123;SDS011;23934;47.998;9.832;2022-09-09T14:45:21;3.13;;;0.93;;
38123;SDS011;23934;47.998;9.832;2022-09-09T14:47:49;4.57;;;1.13;;
38123;SDS011;23934;47.998;9.832;2022-09-09T14:50:15;1.95;;;0.85;;
38123;SDS011;23934;47.998;9.832;2022-09-09T14:52:41;4.38;;;0.82;;
38123;SDS011;23934;47.998;9.832;2022-09-09T14:55:07;3.17;;;1.05;;
38123;SDS011;23934;47.998;9.832;2022-09-09T14:57:34;3.00;;;1.20;;
38123;SDS011;23934;47.998;9.832;2022-09-09T15:00:01;1.92;;;1.00;;
38123;SDS011;23934;47.998;9.832;2022-09-09T15:02:27;3.55;;;1.23;;
38123;SDS011;23934;47.998;9.832;2022-09-09T15:04:54;2.05;;;1.13;;
38123;SDS011;23934;47.998;9.832;2022-09-09T15:07:23;2.17;;;1.10;;
38123;SDS011;23934;47.998;9.832;2022-09-09T15:09:49;4.90;;;0.85;;
38123;SDS011;23934;47.998;9.832;2022-09-09T15:12:15;5.10;;;0.68;;
38123;SDS011;23934;47.998;9.832;2022-09-09T15:14:43;3.53;;;1.48;;
38123;SDS011;23934;47.998;9.832;2022-09-09T15:17:09;4.70;;;1.00;;
38123;SDS011;23934;47.998;9.832;2022-09-09T15:19:35;6.22;;;0.80;;
38123;SDS011;23934;47.998;9.832;2022-09-09T15:22:02;0.98;;;0.75;;
38123;SDS011;23934;47.998;9.832;2022-09-09T15:24:30;2.92;;;0.77;;
38123;SDS011;23934;47.998;9.832;2022-09-09T15:26:56;2.97;;;1.00;;
38123;SDS011;23934;47.998;9.832;2022-09-09T15:29:22;6.43;;;1.70;;
38123;SDS011;23934;47.998;9.832;2022-09-09T15:31:48;4.15;;;1.10;;
38123;SDS011;23934;47.998;9.832;2022-09-09T15:34:14;3.00;;;0.75;;
38123;SDS011;23934;47.998;9.832;2022-09-09T15:36:41;2.67;;;0.90;;
38123;SDS011;23934;47.998;9.832;2022-09-09T15:39:08;1.27;;;0.60;;
38123;SDS011;23934;47.998;9.832;2022-09-09T15:41:37;2.70;;;0.90;;
38123;SDS011;23934;47.998;9.832;2022-09-09T15:44:03;4.82;;;0.80;;
38123;SDS011;23934;47.998;9.832;2022-09-09T15:49:18;1.20;;;0.70;;
38123;SDS011;23934;47.998;9.832;2022-09-09T15:51:47;3.08;;;0.95;;
38123;SDS011;23934;47.998;9.832;2022-09-09T15:54:16;3.95;;;0.80;;
38123;SDS011;23934;47.998;9.832;2022-09-09T15:56:43;4.90;;;0.90;;
38123;SDS011;23934;47.998;9.832;2022-09-09T15:59:10;2.47;;;0.90;;
38123;SDS011;23934;47.998;9.832;2022-09-09T16:01:36;2.00;;;1.35;;
38123;SDS011;23934;47.998;9.832;2022-09-09T16:04:04;2.30;;;1.30;;
38123;SDS011;23934;47.998;9.832;2022-09-09T16:06:31;1.77;;;1.20;;
38123;SDS011;23934;47.998;9.832;2022-09-09T16:08:58;1.83;;;1.20;;
38123;SDS011;23934;47.998;9.832;2022-09-09T16:11:27;1.75;;;0.77;;
38123;SDS011;23934;47.998;9.832;2022-09-09T16:13:54;2.53;;;1.02;;
38123;SDS011;23934;47.998;9.832;2022-09-09T16:16:21;2.45;;;0.88;;
38123;SDS011;23934;47.998;9.832;2022-09-09T16:18:50;0.85;;;0.70;;
38123;SDS011;23934;47.998;9.832;2022-09-09T16:21:21;3.05;;;0.90;;
38123;SDS011;23934;47.998;9.832;2022-09-09T16:23:49;1.95;;;1.20;;
38123;SDS011;23934;47.998;9.832;2022-09-09T16:26:15;1.70;;;1.10;;
38123;SDS011;23934;47.998;9.832;2022-09-09T16:28:42;2.38;;;1.00;;
38123;SDS011;23934;47.998;9.832;2022-09-09T16:31:10;2.30;;;1.65;;
38123;SDS011;23934;47.998;9.832;2022-09-09T16:33:37;2.78;;;1.05;;
38123;SDS011;23934;47.998;9.832;2022-09-09T16:36:06;3.00;;;1.58;;
38123;SDS011;23934;47.998;9.832;2022-09-09T16:38:32;4.43;;;1.52;;
38123;SDS011;23934;47.998;9.832;2022-09-09T16:41:00;5.70;;;1.70;;
38123;SDS011;23934;47.998;9.832;2022-09-09T16:43:26;4.63;;;1.70;;
38123;SDS011;23934;47.998;9.832;2022-09-09T16:45:52;4.32;;;1.92;;
38123;SDS011;23934;47.998;9.832;2022-09-09T16:48:18;6.38;;;2.47;;
38123;SDS011;23934;47.998;9.832;2022-09-09T16:50:45;5.20;;;1.58;;